sensor_id;sensor_type;location;lat;lon;timestamp;temperature;humidity
30865;DHT22;17574;49.418;11.038;2023-01-06T00:00:39;9.10;98.50
30865;DHT22;17574;49.418;11.038;2023-01-06T00:03:07;9.10;98.50
30865;DHT22;17574;49.418;11.038;2023-01-06T00:05:33;9.10;98.70
30865;DHT22;17574;49.418;11.038;2023-01-06T00:08:00;9.10;98.60
30865;DHT22;17574;49.418;11.038;2023-01-06T00:10:27;9.10;98.50
30865;DHT22;17574;49.418;11.038;2023-01-06T00:12:53;9.20;99.00
30865;DHT22;17574;49.418;11.038;2023-01-06T00:15:20;9.10;99.00
30865;DHT22;17574;49.418;11.038;2023-01-06T00:17:47;9.10;98.60
30865;DHT22;17574;49.418;11.038;2023-01-06T00:20:13;9.10;98.80
30865;DHT22;17574;49.418;11.038;2023-01-06T00:22:40;9.20;99.10
30865;DHT22;17574;49.418;11.038;2023-01-06T00:25:08;9.10;98.90
30865;DHT22;17574;49.418;11.038;2023-01-06T00:27:36;9.10;98.70
30865;DHT22;17574;49.418;11.038;2023-01-06T00:30:03;9.10;99.10
30865;DHT22;17574;49.418;11.038;2023-01-06T00:32:30;9.00;98.90
30865;DHT22;17574;49.418;11.038;2023-01-06T00:34:56;9.00;99.00
30865;DHT22;17574;49.418;11.038;2023-01-06T00:37:24;8.90;99.30
30865;DHT22;17574;49.418;11.038;2023-01-06T00:39:50;8.90;99.50
30865;DHT22;17574;49.418;11.038;2023-01-06T00:42:17;9.00;99.50
30865;DHT22;17574;49.418;11.038;2023-01-06T00:44:43;8.90;99.70
30865;DHT22;17574;49.418;11.038;2023-01-06T00:47:10;8.90;99.90
30865;DHT22;17574;49.418;11.038;2023-01-06T00:49:37;8.90;99.90
30865;DHT22;17574;49.418;11.038;2023-01-06T00:52:03;8.90;99.90
30865;DHT22;17574;49.418;11.038;2023-01-06T00:54:30;8.90;99.90
30865;DHT22;17574;49.418;11.038;2023-01-06T00:56:57;8.90;99.90
30865;DHT22;17574;49.418;11.038;2023-01-06T00:59:24;8.90;99.90
30865;DHT22;17574;49.418;11.038;2023-01-06T01:01:52;8.90;99.90
30865;DHT22;17574;49.418;11.038;2023-01-06T01:04:20;8.90;99.90
30865;DHT22;17574;49.418;11.038;2023-01-06T01:06:47;8.90;99.90
30865;DHT22;17574;49.418;11.038;2023-01-06T01:09:15;8.90;99.90
30865;DHT22;17574;49.418;11.038;2023-01-06T01:11:42;8.90;99.90
30865;DHT22;17574;49.418;11.038;2023-01-06T01:14:27;8.90;99.90
30865;DHT22;17574;49.418;11.038;2023-01-06T01:16:54;8.90;99.90
30865;DHT22;17574;49.418;11.038;2023-01-06T01:19:20;8.90;99.90
30865;DHT22;17574;49.418;11.038;2023-01-06T01:21:47;8.90;99.90
30865;DHT22;17574;49.418;11.038;2023-01-06T01:24:14;8.90;99.90
30865;DHT22;17574;49.418;11.038;2023-01-06T01:26:40;9.00;99.90
30865;DHT22;17574;49.418;11.038;2023-01-06T01:29:09;8.90;99.90
30865;DHT22;17574;49.418;11.038;2023-01-06T01:31:36;8.90;99.90
30865;DHT22;17574;49.418;11.038;2023-01-06T01:34:02;8.90;99.90
30865;DHT22;17574;49.418;11.038;2023-01-06T01:36:29;9.00;99.90
30865;DHT22;17574;49.418;11.038;2023-01-06T01:38:56;8.90;99.90
30865;DHT22;17574;49.418;11.038;2023-01-06T01:41:23;8.90;99.90
30865;DHT22;17574;49.418;11.038;2023-01-06T01:43:54;8.80;99.90
30865;DHT22;17574;49.418;11.038;2023-01-06T01:46:31;8.80;99.90
30865;DHT22;17574;49.418;11.038;2023-01-06T01:49:00;8.80;99.90
30865;DHT22;17574;49.418;11.038;2023-01-06T01:51:28;8.90;99.90
30865;DHT22;17574;49.418;11.038;2023-01-06T01:53:56;8.80;99.90
30865;DHT22;17574;49.418;11.038;2023-01-06T01:56:25;8.80;99.90
30865;DHT22;17574;49.418;11.038;2023-01-06T01:58:58;8.80;99.90
30865;DHT22;17574;49.418;11.038;2023-01-06T02:01:25;8.80;99.90
30865;DHT22;17574;49.418;11.038;2023-01-06T02:03:52;8.80;99.90
30865;DHT22;17574;49.418;11.038;2023-01-06T02:06:20;8.80;99.90
30865;DHT22;17574;49.418;11.038;2023-01-06T02:11:13;8.80;99.90
30865;DHT22;17574;49.418;11.038;2023-01-06T02:13:40;8.80;99.90
30865;DHT22;17574;49.418;11.038;2023-01-06T02:31:18;8.90;99.90
30865;DHT22;17574;49.418;11.038;2023-01-06T02:36:36;8.90;99.90
30865;DHT22;17574;49.418;11.038;2023-01-06T02:39:27;8.90;99.90
30865;DHT22;17574;49.418;11.038;2023-01-06T02:44:47;9.00;99.90
30865;DHT22;17574;49.418;11.038;2023-01-06T02:47:30;9.00;99.90
30865;DHT22;17574;49.418;11.038;2023-01-06T02:50:08;9.00;99.90
30865;DHT22;17574;49.418;11.038;2023-01-06T02:52:54;9.00;99.90
30865;DHT22;17574;49.418;11.038;2023-01-06T02:55:27;9.00;99.90
30865;DHT22;17574;49.418;11.038;2023-01-06T02:57:56;9.00;99.90
30865;DHT22;17574;49.418;11.038;2023-01-06T03:00:34;9.00;99.90
30865;DHT22;17574;49.418;11.038;2023-01-06T03:03:02;9.00;99.90
30865;DHT22;17574;49.418;11.038;2023-01-06T03:05:31;9.00;99.90
30865;DHT22;17574;49.418;11.038;2023-01-06T03:07:59;9.00;99.90
30865;DHT22;17574;49.418;11.038;2023-01-06T03:10:28;9.00;99.90
30865;DHT22;17574;49.418;11.038;2023-01-06T03:13:05;9.00;99.90
30865;DHT22;17574;49.418;11.038;2023-01-06T03:15:34;9.10;99.90
30865;DHT22;17574;49.418;11.038;2023-01-06T03:18:01;9.10;99.90
30865;DHT22;17574;49.418;11.038;2023-01-06T03:20:28;9.10;99.90
30865;DHT22;17574;49.418;11.038;2023-01-06T03:22:54;9.10;99.90
30865;DHT22;17574;49.418;11.038;2023-01-06T03:25:21;9.10;99.90
30865;DHT22;17574;49.418;11.038;2023-01-06T03:27:48;9.20;99.90
30865;DHT22;17574;49.418;11.038;2023-01-06T03:30:15;9.10;99.90
30865;DHT22;17574;49.418;11.038;2023-01-06T03:32:47;9.10;99.90
30865;DHT22;17574;49.418;11.038;2023-01-06T03:35:24;9.10;99.90
30865;DHT22;17574;49.418;11.038;2023-01-06T03:43:07;9.10;99.90
30865;DHT22;17574;49.418;11.038;2023-01-06T03:45:51;9.20;99.90
30865;DHT22;17574;49.418;11.038;2023-01-06T03:48:21;9.10;99.90
30865;DHT22;17574;49.418;11.038;2023-01-06T03:50:49;9.10;99.90
30865;DHT22;17574;49.418;11.038;2023-01-06T03:55:47;9.20;99.90
30865;DHT22;17574;49.418;11.038;2023-01-06T03:58:16;9.10;99.90
30865;DHT22;17574;49.418;11.038;2023-01-06T04:00:43;9.20;99.90
30865;DHT22;17574;49.418;11.038;2023-01-06T04:03:10;9.20;99.90
30865;DHT22;17574;49.418;11.038;2023-01-06T04:05:38;9.20;99.90
30865;DHT22;17574;49.418;11.038;2023-01-06T04:08:05;9.20;99.90
30865;DHT22;17574;49.418;11.038;2023-01-06T04:10:32;9.20;99.90
30865;DHT22;17574;49.418;11.038;2023-01-06T04:12:58;9.20;99.90
30865;DHT22;17574;49.418;11.038;2023-01-06T04:15:26;9.20;99.90
30865;DHT22;17574;49.418;11.038;2023-01-06T04:17:54;9.20;99.90
30865;DHT22;17574;49.418;11.038;2023-01-06T04:20:23;9.20;99.90
30865;DHT22;17574;49.418;11.038;2023-01-06T04:22:51;9.30;99.90
30865;DHT22;17574;49.418;11.038;2023-01-06T04:25:19;8.80;99.90
30865;DHT22;17574;49.418;11.038;2023-01-06T04:27:45;9.20;99.90
30865;DHT22;17574;49.418;11.038;2023-01-06T04:30:12;9.20;99.90
30865;DHT22;17574;49.418;11.038;2023-01-06T04:32:39;9.20;99.90
30865;DHT22;17574;49.418;11.038;2023-01-06T04:35:05;9.30;99.90
30865;DHT22;17574;49.418;11.038;2023-01-06T04:37:32;9.30;99.90
30865;DHT22;17574;49.418;11.038;2023-01-06T04:39:59;9.30;99.90
30865;DHT22;17574;49.418;11.038;2023-01-06T04:42:25;9.30;99.90
30865;DHT22;17574;49.418;11.038;2023-01-06T04:44:52;9.30;99.90
30865;DHT22;17574;49.418;11.038;2023-01-06T04:47:19;9.30;99.90
30865;DHT22;17574;49.418;11.038;2023-01-06T04:49:45;9.40;99.90
30865;DHT22;17574;49.418;11.038;2023-01-06T04:52:12;9.30;99.90
30865;DHT22;17574;49.418;11.038;2023-01-06T04:54:38;9.40;99.90
30865;DHT22;17574;49.418;11.038;2023-01-06T04:57:05;9.40;99.90
30865;DHT22;17574;49.418;11.038;2023-01-06T04:59:31;9.40;99.90
30865;DHT22;17574;49.418;11.038;2023-01-06T05:01:58;9.40;99.90
30865;DHT22;17574;49.418;11.038;2023-01-06T05:04:25;9.40;99.90
30865;DHT22;17574;49.418;11.038;2023-01-06T05:06:59;9.40;99.90
30865;DHT22;17574;49.418;11.038;2023-01-06T05:09:25;9.40;99.90
30865;DHT22;17574;49.418;11.038;2023-01-06T05:11:52;9.40;99.90
30865;DHT22;17574;49.418;11.038;2023-01-06T05:14:19;9.40;99.90
30865;DHT22;17574;49.418;11.038;2023-01-06T05:16:47;9.40;99.90
30865;DHT22;17574;49.418;11.038;2023-01-06T05:19:13;9.40;99.90
30865;DHT22;17574;49.418;11.038;2023-01-06T05:21:40;9.50;99.90
30865;DHT22;17574;49.418;11.038;2023-01-06T05:24:07;9.50;99.90
30865;DHT22;17574;49.418;11.038;2023-01-06T05:26:34;9.50;99.90
30865;DHT22;17574;49.418;11.038;2023-01-06T05:29:01;9.50;99.90
30865;DHT22;17574;49.418;11.038;2023-01-06T05:31:27;9.50;99.90
30865;DHT22;17574;49.418;11.038;2023-01-06T05:33:54;9.50;99.90
30865;DHT22;17574;49.418;11.038;2023-01-06T05:36:20;9.50;99.90
30865;DHT22;17574;49.418;11.038;2023-01-06T05:38:51;9.50;99.90
30865;DHT22;17574;49.418;11.038;2023-01-06T05:41:18;9.50;99.90
30865;DHT22;17574;49.418;11.038;2023-01-06T05:43:45;9.50;99.90
30865;DHT22;17574;49.418;11.038;2023-01-06T05:46:11;9.50;99.90
30865;DHT22;17574;49.418;11.038;2023-01-06T05:48:38;9.50;99.90
30865;DHT22;17574;49.418;11.038;2023-01-06T05:51:06;9.50;99.90
30865;DHT22;17574;49.418;11.038;2023-01-06T05:53:33;9.50;99.90
30865;DHT22;17574;49.418;11.038;2023-01-06T05:56:04;9.50;99.90
30865;DHT22;17574;49.418;11.038;2023-01-06T05:58:31;9.60;99.90
30865;DHT22;17574;49.418;11.038;2023-01-06T06:00:59;9.50;99.90
30865;DHT22;17574;49.418;11.038;2023-01-06T06:03:25;9.50;99.90
30865;DHT22;17574;49.418;11.038;2023-01-06T06:05:52;9.50;99.90
30865;DHT22;17574;49.418;11.038;2023-01-06T06:08:19;9.50;99.90
30865;DHT22;17574;49.418;11.038;2023-01-06T06:10:45;9.50;99.90
30865;DHT22;17574;49.418;11.038;2023-01-06T06:13:12;9.60;99.90
30865;DHT22;17574;49.418;11.038;2023-01-06T06:15:38;9.60;99.90
30865;DHT22;17574;49.418;11.038;2023-01-06T06:18:05;9.60;99.90
30865;DHT22;17574;49.418;11.038;2023-01-06T06:20:31;9.60;99.90
30865;DHT22;17574;49.418;11.038;2023-01-06T06:22:58;9.60;99.90
30865;DHT22;17574;49.418;11.038;2023-01-06T06:25:25;9.50;99.90
30865;DHT22;17574;49.418;11.038;2023-01-06T06:27:55;9.50;99.90
30865;DHT22;17574;49.418;11.038;2023-01-06T06:30:22;9.50;99.90
30865;DHT22;17574;49.418;11.038;2023-01-06T06:32:48;9.50;99.90
30865;DHT22;17574;49.418;11.038;2023-01-06T06:35:15;9.50;99.90
30865;DHT22;17574;49.418;11.038;2023-01-06T06:37:42;9.50;99.90
30865;DHT22;17574;49.418;11.038;2023-01-06T06:40:08;9.60;99.90
30865;DHT22;17574;49.418;11.038;2023-01-06T06:42:35;9.50;99.90
30865;DHT22;17574;49.418;11.038;2023-01-06T06:45:02;9.50;99.90
30865;DHT22;17574;49.418;11.038;2023-01-06T06:47:30;9.70;99.90
30865;DHT22;17574;49.418;11.038;2023-01-06T06:49:57;9.50;99.90
30865;DHT22;17574;49.418;11.038;2023-01-06T06:52:23;9.50;99.90
30865;DHT22;17574;49.418;11.038;2023-01-06T06:54:50;9.50;99.90
30865;DHT22;17574;49.418;11.038;2023-01-06T06:57:16;9.50;99.90
30865;DHT22;17574;49.418;11.038;2023-01-06T06:59:43;9.50;99.90
30865;DHT22;17574;49.418;11.038;2023-01-06T07:02:10;9.50;99.90
30865;DHT22;17574;49.418;11.038;2023-01-06T07:04:36;9.50;99.90
30865;DHT22;17574;49.418;11.038;2023-01-06T07:07:03;9.50;99.90
30865;DHT22;17574;49.418;11.038;2023-01-06T07:09:30;9.50;99.90
30865;DHT22;17574;49.418;11.038;2023-01-06T07:11:58;9.60;99.90
30865;DHT22;17574;49.418;11.038;2023-01-06T07:14:25;9.60;99.90
30865;DHT22;17574;49.418;11.038;2023-01-06T07:16:51;9.60;99.90
30865;DHT22;17574;49.418;11.038;2023-01-06T07:19:18;9.70;99.90
30865;DHT22;17574;49.418;11.038;2023-01-06T07:21:44;9.70;99.90
30865;DHT22;17574;49.418;11.038;2023-01-06T07:24:11;9.70;99.90
30865;DHT22;17574;49.418;11.038;2023-01-06T07:26:37;9.70;99.90
30865;DHT22;17574;49.418;11.038;2023-01-06T07:29:04;9.70;99.90
30865;DHT22;17574;49.418;11.038;2023-01-06T07:31:30;9.80;99.80
30865;DHT22;17574;49.418;11.038;2023-01-06T07:33:57;9.80;99.50
30865;DHT22;17574;49.418;11.038;2023-01-06T07:36:23;9.80;99.70
30865;DHT22;17574;49.418;11.038;2023-01-06T07:38:50;9.80;99.50
30865;DHT22;17574;49.418;11.038;2023-01-06T07:41:17;9.80;99.40
30865;DHT22;17574;49.418;11.038;2023-01-06T07:43:43;9.90;99.10
30865;DHT22;17574;49.418;11.038;2023-01-06T07:46:10;9.90;98.80
30865;DHT22;17574;49.418;11.038;2023-01-06T07:48:36;9.90;98.80
30865;DHT22;17574;49.418;11.038;2023-01-06T07:51:03;9.90;98.80
30865;DHT22;17574;49.418;11.038;2023-01-06T07:53:30;9.90;98.80
30865;DHT22;17574;49.418;11.038;2023-01-06T07:55:57;10.00;98.40
30865;DHT22;17574;49.418;11.038;2023-01-06T07:58:24;10.00;98.30
30865;DHT22;17574;49.418;11.038;2023-01-06T08:00:51;10.00;98.30
30865;DHT22;17574;49.418;11.038;2023-01-06T08:03:17;10.20;98.40
30865;DHT22;17574;49.418;11.038;2023-01-06T08:05:44;10.10;98.30
30865;DHT22;17574;49.418;11.038;2023-01-06T08:08:10;10.10;97.90
30865;DHT22;17574;49.418;11.038;2023-01-06T08:10:38;10.10;97.80
30865;DHT22;17574;49.418;11.038;2023-01-06T08:13:05;10.20;97.90
30865;DHT22;17574;49.418;11.038;2023-01-06T08:15:32;10.30;97.50
30865;DHT22;17574;49.418;11.038;2023-01-06T08:17:58;10.50;96.90
30865;DHT22;17574;49.418;11.038;2023-01-06T08:20:25;10.40;96.40
30865;DHT22;17574;49.418;11.038;2023-01-06T08:22:51;10.60;95.90
30865;DHT22;17574;49.418;11.038;2023-01-06T08:25:18;10.60;95.30
30865;DHT22;17574;49.418;11.038;2023-01-06T08:27:44;10.70;94.40
30865;DHT22;17574;49.418;11.038;2023-01-06T08:30:11;10.70;94.40
30865;DHT22;17574;49.418;11.038;2023-01-06T08:32:38;10.90;93.60
30865;DHT22;17574;49.418;11.038;2023-01-06T08:35:04;10.90;91.90
30865;DHT22;17574;49.418;11.038;2023-01-06T08:37:31;11.00;91.90
30865;DHT22;17574;49.418;11.038;2023-01-06T08:39:58;11.00;91.90
30865;DHT22;17574;49.418;11.038;2023-01-06T08:42:24;11.20;92.00
30865;DHT22;17574;49.418;11.038;2023-01-06T08:44:51;11.10;92.00
30865;DHT22;17574;49.418;11.038;2023-01-06T08:47:17;11.20;91.20
30865;DHT22;17574;49.418;11.038;2023-01-06T08:49:44;11.30;90.30
30865;DHT22;17574;49.418;11.038;2023-01-06T08:52:10;11.30;88.80
30865;DHT22;17574;49.418;11.038;2023-01-06T08:54:37;11.40;86.80
30865;DHT22;17574;49.418;11.038;2023-01-06T08:57:04;11.40;86.70
30865;DHT22;17574;49.418;11.038;2023-01-06T08:59:30;11.40;86.60
30865;DHT22;17574;49.418;11.038;2023-01-06T09:01:57;11.40;86.40
30865;DHT22;17574;49.418;11.038;2023-01-06T09:04:23;11.40;86.30
30865;DHT22;17574;49.418;11.038;2023-01-06T09:06:50;11.50;86.80
30865;DHT22;17574;49.418;11.038;2023-01-06T09:09:17;11.50;85.90
30865;DHT22;17574;49.418;11.038;2023-01-06T09:11:43;11.60;86.90
30865;DHT22;17574;49.418;11.038;2023-01-06T09:14:11;11.60;86.90
30865;DHT22;17574;49.418;11.038;2023-01-06T09:16:39;11.60;86.90
30865;DHT22;17574;49.418;11.038;2023-01-06T09:19:06;11.50;86.80
30865;DHT22;17574;49.418;11.038;2023-01-06T09:21:35;11.50;88.10
30865;DHT22;17574;49.418;11.038;2023-01-06T09:24:02;11.50;88.80
30865;DHT22;17574;49.418;11.038;2023-01-06T09:26:28;11.60;89.60
30865;DHT22;17574;49.418;11.038;2023-01-06T09:28:55;11.60;90.10
30865;DHT22;17574;49.418;11.038;2023-01-06T09:31:22;11.70;90.60
30865;DHT22;17574;49.418;11.038;2023-01-06T09:33:48;11.70;90.60
30865;DHT22;17574;49.418;11.038;2023-01-06T09:36:15;11.70;90.60
30865;DHT22;17574;49.418;11.038;2023-01-06T09:38:41;11.60;90.60
30865;DHT22;17574;49.418;11.038;2023-01-06T09:41:12;11.60;90.70
30865;DHT22;17574;49.418;11.038;2023-01-06T09:43:44;11.50;90.90
30865;DHT22;17574;49.418;11.038;2023-01-06T09:46:13;11.50;91.30
30865;DHT22;17574;49.418;11.038;2023-01-06T09:48:44;11.40;92.10
30865;DHT22;17574;49.418;11.038;2023-01-06T09:51:13;11.30;92.00
30865;DHT22;17574;49.418;11.038;2023-01-06T09:53:43;11.30;92.10
30865;DHT22;17574;49.418;11.038;2023-01-06T09:56:15;11.30;92.00
30865;DHT22;17574;49.418;11.038;2023-01-06T09:58:53;11.30;90.80
30865;DHT22;17574;49.418;11.038;2023-01-06T10:01:36;11.40;90.30
30865;DHT22;17574;49.418;11.038;2023-01-06T10:04:04;11.50;89.20
30865;DHT22;17574;49.418;11.038;2023-01-06T10:06:41;11.80;87.10
30865;DHT22;17574;49.418;11.038;2023-01-06T10:15:28;12.40;70.40
30865;DHT22;17574;49.418;11.038;2023-01-06T10:17:24;12.40;67.00
30865;DHT22;17574;49.418;11.038;2023-01-06T10:20:02;12.50;62.30
30865;DHT22;17574;49.418;11.038;2023-01-06T10:22:38;12.50;59.90
30865;DHT22;17574;49.418;11.038;2023-01-06T10:25:19;12.50;57.90
30865;DHT22;17574;49.418;11.038;2023-01-06T10:30:24;12.80;55.90
30865;DHT22;17574;49.418;11.038;2023-01-06T10:32:56;12.90;50.40
30865;DHT22;17574;49.418;11.038;2023-01-06T10:35:23;13.00;41.90
30865;DHT22;17574;49.418;11.038;2023-01-06T10:37:51;13.00;41.80
30865;DHT22;17574;49.418;11.038;2023-01-06T10:40:20;13.00;41.80
30865;DHT22;17574;49.418;11.038;2023-01-06T10:45:24;13.10;41.90
30865;DHT22;17574;49.418;11.038;2023-01-06T10:47:52;13.10;40.30
30865;DHT22;17574;49.418;11.038;2023-01-06T10:50:19;13.20;39.50
30865;DHT22;17574;49.418;11.038;2023-01-06T10:52:46;13.70;53.30
30865;DHT22;17574;49.418;11.038;2023-01-06T10:57:48;14.00;26.20
30865;DHT22;17574;49.418;11.038;2023-01-06T11:00:20;13.90;23.50
30865;DHT22;17574;49.418;11.038;2023-01-06T11:02:53;13.70;24.80
30865;DHT22;17574;49.418;11.038;2023-01-06T11:05:39;13.60;25.10
30865;DHT22;17574;49.418;11.038;2023-01-06T11:08:06;13.50;26.20
30865;DHT22;17574;49.418;11.038;2023-01-06T11:10:35;13.40;27.30
30865;DHT22;17574;49.418;11.038;2023-01-06T11:13:04;13.40;26.30
30865;DHT22;17574;49.418;11.038;2023-01-06T11:15:35;13.30;26.40
30865;DHT22;17574;49.418;11.038;2023-01-06T11:18:02;13.10;27.10
30865;DHT22;17574;49.418;11.038;2023-01-06T11:20:30;13.00;28.30
30865;DHT22;17574;49.418;11.038;2023-01-06T11:23:13;12.90;29.30
30865;DHT22;17574;49.418;11.038;2023-01-06T11:29:15;13.70;39.20
30865;DHT22;17574;49.418;11.038;2023-01-06T11:31:42;14.20;31.70
30865;DHT22;17574;49.418;11.038;2023-01-06T11:34:18;14.50;27.20
30865;DHT22;17574;49.418;11.038;2023-01-06T11:42:46;15.00;21.40
30865;DHT22;17574;49.418;11.038;2023-01-06T11:48:03;14.90;16.40
30865;DHT22;17574;49.418;11.038;2023-01-06T11:50:30;15.00;15.60
30865;DHT22;17574;49.418;11.038;2023-01-06T11:53:01;15.00;16.80
30865;DHT22;17574;49.418;11.038;2023-01-06T11:55:28;14.90;13.60
30865;DHT22;17574;49.418;11.038;2023-01-06T11:57:58;14.90;13.60
30865;DHT22;17574;49.418;11.038;2023-01-06T12:03:27;14.90;15.80
30865;DHT22;17574;49.418;11.038;2023-01-06T12:08:23;14.70;15.60
30865;DHT22;17574;49.418;11.038;2023-01-06T12:10:52;14.60;16.10
30865;DHT22;17574;49.418;11.038;2023-01-06T12:13:20;14.70;18.10
30865;DHT22;17574;49.418;11.038;2023-01-06T12:15:49;14.70;15.80
30865;DHT22;17574;49.418;11.038;2023-01-06T12:18:19;14.60;13.30
30865;DHT22;17574;49.418;11.038;2023-01-06T12:20:48;14.30;13.10
30865;DHT22;17574;49.418;11.038;2023-01-06T12:23:25;14.40;15.30
30865;DHT22;17574;49.418;11.038;2023-01-06T12:25:53;14.40;15.50
30865;DHT22;17574;49.418;11.038;2023-01-06T12:28:26;14.30;13.10
30865;DHT22;17574;49.418;11.038;2023-01-06T12:30:55;14.20;14.30
30865;DHT22;17574;49.418;11.038;2023-01-06T12:35:58;14.30;13.10
30865;DHT22;17574;49.418;11.038;2023-01-06T12:38:45;14.20;14.50
30865;DHT22;17574;49.418;11.038;2023-01-06T12:46:49;14.30;13.10
30865;DHT22;17574;49.418;11.038;2023-01-06T12:49:22;14.30;11.60
30865;DHT22;17574;49.418;11.038;2023-01-06T12:51:55;14.30;9.10
30865;DHT22;17574;49.418;11.038;2023-01-06T12:54:30;14.20;7.30
30865;DHT22;17574;49.418;11.038;2023-01-06T12:59:58;13.90;8.00
30865;DHT22;17574;49.418;11.038;2023-01-06T13:10:25;13.50;8.60
30865;DHT22;17574;49.418;11.038;2023-01-06T13:15:32;13.30;10.70
30865;DHT22;17574;49.418;11.038;2023-01-06T13:18:18;13.10;11.40
30865;DHT22;17574;49.418;11.038;2023-01-06T13:20:48;13.00;12.10
30865;DHT22;17574;49.418;11.038;2023-01-06T13:30:45;12.80;16.80
30865;DHT22;17574;49.418;11.038;2023-01-06T13:40:58;13.10;16.30
30865;DHT22;17574;49.418;11.038;2023-01-06T13:43:27;13.10;14.80
30865;DHT22;17574;49.418;11.038;2023-01-06T13:45:55;13.10;12.80
30865;DHT22;17574;49.418;11.038;2023-01-06T13:48:25;13.20;14.80
30865;DHT22;17574;49.418;11.038;2023-01-06T13:50:54;13.20;13.30
30865;DHT22;17574;49.418;11.038;2023-01-06T13:53:21;13.20;14.00
30865;DHT22;17574;49.418;11.038;2023-01-06T13:58:34;13.30;15.30
30865;DHT22;17574;49.418;11.038;2023-01-06T14:01:08;13.20;12.30
30865;DHT22;17574;49.418;11.038;2023-01-06T14:03:36;13.20;12.40
30865;DHT22;17574;49.418;11.038;2023-01-06T14:06:04;13.30;12.30
30865;DHT22;17574;49.418;11.038;2023-01-06T15:31:22;13.80;14.00
30865;DHT22;17574;49.418;11.038;2023-01-06T15:33:49;14.50;8.50
30865;DHT22;17574;49.418;11.038;2023-01-06T15:36:18;14.10;5.00
30865;DHT22;17574;49.418;11.038;2023-01-06T15:38:45;13.60;6.70
30865;DHT22;17574;49.418;11.038;2023-01-06T15:41:12;13.30;7.60
30865;DHT22;17574;49.418;11.038;2023-01-06T15:43:58;12.80;12.00
30865;DHT22;17574;49.418;11.038;2023-01-06T15:46:26;12.40;13.80
30865;DHT22;17574;49.418;11.038;2023-01-06T15:49:00;12.20;15.80
30865;DHT22;17574;49.418;11.038;2023-01-06T15:51:28;12.00;17.40
30865;DHT22;17574;49.418;11.038;2023-01-06T15:53:55;11.90;18.60
30865;DHT22;17574;49.418;11.038;2023-01-06T15:56:23;11.80;20.60
30865;DHT22;17574;49.418;11.038;2023-01-06T15:58:51;11.80;20.60
30865;DHT22;17574;49.418;11.038;2023-01-06T16:01:19;11.60;22.00
30865;DHT22;17574;49.418;11.038;2023-01-06T16:03:53;11.50;23.20
30865;DHT22;17574;49.418;11.038;2023-01-06T16:06:24;11.40;24.20
30865;DHT22;17574;49.418;11.038;2023-01-06T16:08:51;11.40;24.80
30865;DHT22;17574;49.418;11.038;2023-01-06T16:14:04;11.20;26.60
30865;DHT22;17574;49.418;11.038;2023-01-06T16:16:32;11.20;27.50
30865;DHT22;17574;49.418;11.038;2023-01-06T16:19:06;11.10;28.20
30865;DHT22;17574;49.418;11.038;2023-01-06T16:21:33;11.10;29.10
30865;DHT22;17574;49.418;11.038;2023-01-06T16:24:02;11.00;29.00
30865;DHT22;17574;49.418;11.038;2023-01-06T16:26:30;11.00;29.00
30865;DHT22;17574;49.418;11.038;2023-01-06T16:28:58;11.00;29.70
30865;DHT22;17574;49.418;11.038;2023-01-06T16:31:27;10.90;30.90
30865;DHT22;17574;49.418;11.038;2023-01-06T16:33:54;10.90;31.40
30865;DHT22;17574;49.418;11.038;2023-01-06T16:36:20;10.90;32.70
30865;DHT22;17574;49.418;11.038;2023-01-06T16:38:47;10.80;32.90
30865;DHT22;17574;49.418;11.038;2023-01-06T16:41:17;10.90;33.20
30865;DHT22;17574;49.418;11.038;2023-01-06T16:43:44;10.80;33.30
30865;DHT22;17574;49.418;11.038;2023-01-06T16:46:19;10.80;33.50
30865;DHT22;17574;49.418;11.038;2023-01-06T16:48:46;10.80;34.00
30865;DHT22;17574;49.418;11.038;2023-01-06T16:51:14;10.80;35.10
30865;DHT22;17574;49.418;11.038;2023-01-06T16:53:44;10.90;36.20
30865;DHT22;17574;49.418;11.038;2023-01-06T16:56:14;10.70;38.10
30865;DHT22;17574;49.418;11.038;2023-01-06T16:58:42;10.70;37.90
30865;DHT22;17574;49.418;11.038;2023-01-06T17:01:11;10.70;38.40
30865;DHT22;17574;49.418;11.038;2023-01-06T17:03:39;10.70;39.50
30865;DHT22;17574;49.418;11.038;2023-01-06T17:06:16;10.70;39.60
30865;DHT22;17574;49.418;11.038;2023-01-06T17:08:43;10.60;39.40
30865;DHT22;17574;49.418;11.038;2023-01-06T17:11:18;10.60;39.50
30865;DHT22;17574;49.418;11.038;2023-01-06T17:13:49;10.60;40.20
30865;DHT22;17574;49.418;11.038;2023-01-06T17:16:17;10.60;39.50
30865;DHT22;17574;49.418;11.038;2023-01-06T17:18:50;10.60;41.00
30865;DHT22;17574;49.418;11.038;2023-01-06T17:21:21;10.60;40.80
30865;DHT22;17574;49.418;11.038;2023-01-06T17:23:54;10.60;41.30
30865;DHT22;17574;49.418;11.038;2023-01-06T17:26:22;10.50;41.60
30865;DHT22;17574;49.418;11.038;2023-01-06T17:28:50;10.50;42.40
30865;DHT22;17574;49.418;11.038;2023-01-06T17:31:31;10.50;43.20
30865;DHT22;17574;49.418;11.038;2023-01-06T17:37:01;10.50;43.60
30865;DHT22;17574;49.418;11.038;2023-01-06T17:39:36;10.50;44.00
30865;DHT22;17574;49.418;11.038;2023-01-06T17:44:39;10.50;45.70
30865;DHT22;17574;49.418;11.038;2023-01-06T17:49:46;10.40;45.90
30865;DHT22;17574;49.418;11.038;2023-01-06T17:52:14;10.40;46.00
30865;DHT22;17574;49.418;11.038;2023-01-06T17:54:42;10.40;46.30
30865;DHT22;17574;49.418;11.038;2023-01-06T17:57:27;10.50;46.30
30865;DHT22;17574;49.418;11.038;2023-01-06T17:59:54;10.40;46.00
30865;DHT22;17574;49.418;11.038;2023-01-06T18:08:01;10.40;47.10
30865;DHT22;17574;49.418;11.038;2023-01-06T18:10:32;10.40;47.80
30865;DHT22;17574;49.418;11.038;2023-01-06T18:15:55;10.30;50.00
30865;DHT22;17574;49.418;11.038;2023-01-06T18:18:23;10.30;49.60
30865;DHT22;17574;49.418;11.038;2023-01-06T18:20:59;10.30;50.00
30865;DHT22;17574;49.418;11.038;2023-01-06T18:23:27;10.30;50.00
30865;DHT22;17574;49.418;11.038;2023-01-06T18:25:54;10.30;50.00
30865;DHT22;17574;49.418;11.038;2023-01-06T18:28:21;10.30;50.00
30865;DHT22;17574;49.418;11.038;2023-01-06T18:30:51;10.30;50.00
30865;DHT22;17574;49.418;11.038;2023-01-06T18:33:18;10.30;50.00
30865;DHT22;17574;49.418;11.038;2023-01-06T18:35:46;10.30;51.60
30865;DHT22;17574;49.418;11.038;2023-01-06T18:38:16;10.20;50.80
30865;DHT22;17574;49.418;11.038;2023-01-06T18:40:42;10.20;50.70
30865;DHT22;17574;49.418;11.038;2023-01-06T18:45:46;10.20;51.40
30865;DHT22;17574;49.418;11.038;2023-01-06T18:48:29;10.20;51.90
30865;DHT22;17574;49.418;11.038;2023-01-06T18:51:00;10.20;52.50
30865;DHT22;17574;49.418;11.038;2023-01-06T18:53:28;10.20;52.60
30865;DHT22;17574;49.418;11.038;2023-01-06T18:55:56;10.20;52.70
30865;DHT22;17574;49.418;11.038;2023-01-06T19:01:00;14.90;39.60